sensor_id;sensor_type;location;lat;lon;timestamp;P1;durP1;ratioP1;P2;durP2;ratioP2
22705;SDS011;11520;51.198;4.468;2022-08-19T00:01:34;32.83;;;25.52;;
22705;SDS011;11520;51.198;4.468;2022-08-19T00:04:03;33.60;;;26.08;;
22705;SDS011;11520;51.198;4.468;2022-08-19T00:06:35;36.65;;;27.35;;
22705;SDS011;11520;51.198;4.468;2022-08-19T00:09:02;38.10;;;28.35;;
22705;SDS011;11520;51.198;4.468;2022-08-19T00:11:30;31.27;;;26.33;;
22705;SDS011;11520;51.198;4.468;2022-08-19T00:13:56;36.53;;;27.88;;
22705;SDS011;11520;51.198;4.468;2022-08-19T00:16:23;35.15;;;27.83;;
22705;SDS011;11520;51.198;4.468;2022-08-19T00:18:49;40.50;;;30.05;;
22705;SDS011;11520;51.198;4.468;2022-08-19T00:21:15;40.25;;;29.20;;
22705;SDS011;11520;51.198;4.468;2022-08-19T00:23:41;40.53;;;29.70;;
22705;SDS011;11520;51.198;4.468;2022-08-19T00:26:08;39.88;;;29.05;;
22705;SDS011;11520;51.198;4.468;2022-08-19T00:28:34;43.38;;;29.58;;
22705;SDS011;11520;51.198;4.468;2022-08-19T00:31:01;46.83;;;33.28;;
22705;SDS011;11520;51.198;4.468;2022-08-19T00:33:31;45.22;;;32.38;;
22705;SDS011;11520;51.198;4.468;2022-08-19T00:35:58;44.78;;;32.28;;
22705;SDS011;11520;51.198;4.468;2022-08-19T00:38:25;43.33;;;31.00;;
22705;SDS011;11520;51.198;4.468;2022-08-19T00:40:52;49.97;;;34.55;;
22705;SDS011;11520;51.198;4.468;2022-08-19T00:43:21;49.38;;;35.05;;
22705;SDS011;11520;51.198;4.468;2022-08-19T00:45:48;49.22;;;33.97;;
22705;SDS011;11520;51.198;4.468;2022-08-19T00:48:16;45.70;;;33.47;;
22705;SDS011;11520;51.198;4.468;2022-08-19T00:50:42;49.33;;;34.10;;
22705;SDS011;11520;51.198;4.468;2022-08-19T00:53:10;48.13;;;34.10;;
22705;SDS011;11520;51.198;4.468;2022-08-19T00:55:40;51.85;;;33.22;;
22705;SDS011;11520;51.198;4.468;2022-08-19T00:58:10;51.45;;;34.72;;
22705;SDS011;11520;51.198;4.468;2022-08-19T01:00:40;44.50;;;31.73;;
22705;SDS011;11520;51.198;4.468;2022-08-19T01:03:07;51.33;;;33.08;;
22705;SDS011;11520;51.198;4.468;2022-08-19T01:05:36;56.20;;;36.08;;
22705;SDS011;11520;51.198;4.468;2022-08-19T01:08:05;49.33;;;32.85;;
22705;SDS011;11520;51.198;4.468;2022-08-19T01:10:32;46.97;;;32.25;;
22705;SDS011;11520;51.198;4.468;2022-08-19T01:13:02;49.88;;;35.05;;
22705;SDS011;11520;51.198;4.468;2022-08-19T01:15:35;49.42;;;33.80;;
22705;SDS011;11520;51.198;4.468;2022-08-19T01:18:08;47.45;;;34.03;;
22705;SDS011;11520;51.198;4.468;2022-08-19T01:20:38;49.13;;;34.83;;
22705;SDS011;11520;51.198;4.468;2022-08-19T01:23:06;52.25;;;34.67;;
22705;SDS011;11520;51.198;4.468;2022-08-19T01:25:34;48.10;;;34.13;;
22705;SDS011;11520;51.198;4.468;2022-08-19T01:28:06;48.75;;;34.22;;
22705;SDS011;11520;51.198;4.468;2022-08-19T01:30:33;49.47;;;33.97;;
22705;SDS011;11520;51.198;4.468;2022-08-19T01:33:00;52.97;;;35.45;;
22705;SDS011;11520;51.198;4.468;2022-08-19T01:35:27;55.95;;;36.58;;
22705;SDS011;11520;51.198;4.468;2022-08-19T01:38:05;50.05;;;36.25;;
22705;SDS011;11520;51.198;4.468;2022-08-19T01:40:33;52.67;;;35.08;;
22705;SDS011;11520;51.198;4.468;2022-08-19T01:43:03;55.22;;;37.13;;
22705;SDS011;11520;51.198;4.468;2022-08-19T01:45:30;51.35;;;34.30;;
22705;SDS011;11520;51.198;4.468;2022-08-19T01:47:58;47.72;;;32.33;;
22705;SDS011;11520;51.198;4.468;2022-08-19T01:50:25;51.50;;;32.40;;
22705;SDS011;11520;51.198;4.468;2022-08-19T01:52:51;45.15;;;30.95;;
22705;SDS011;11520;51.198;4.468;2022-08-19T01:55:19;45.70;;;30.60;;
22705;SDS011;11520;51.198;4.468;2022-08-19T01:57:49;47.47;;;30.88;;
22705;SDS011;11520;51.198;4.468;2022-08-19T02:00:20;41.00;;;28.63;;
22705;SDS011;11520;51.198;4.468;2022-08-19T02:02:48;40.25;;;27.92;;
22705;SDS011;11520;51.198;4.468;2022-08-19T02:05:13;43.00;;;29.10;;
22705;SDS011;11520;51.198;4.468;2022-08-19T02:07:41;49.38;;;28.17;;
22705;SDS011;11520;51.198;4.468;2022-08-19T02:10:09;38.67;;;26.35;;
22705;SDS011;11520;51.198;4.468;2022-08-19T02:12:39;38.30;;;26.75;;
22705;SDS011;11520;51.198;4.468;2022-08-19T02:15:05;41.42;;;26.85;;
22705;SDS011;11520;51.198;4.468;2022-08-19T02:17:32;44.15;;;27.23;;
22705;SDS011;11520;51.198;4.468;2022-08-19T02:19:58;40.65;;;27.60;;
22705;SDS011;11520;51.198;4.468;2022-08-19T02:22:24;40.13;;;26.58;;
22705;SDS011;11520;51.198;4.468;2022-08-19T02:24:53;42.50;;;28.98;;
22705;SDS011;11520;51.198;4.468;2022-08-19T02:27:21;48.15;;;31.63;;
22705;SDS011;11520;51.198;4.468;2022-08-19T02:29:49;44.90;;;30.33;;
22705;SDS011;11520;51.198;4.468;2022-08-19T02:32:16;49.65;;;30.30;;
22705;SDS011;11520;51.198;4.468;2022-08-19T02:34:44;46.78;;;30.83;;
22705;SDS011;11520;51.198;4.468;2022-08-19T02:37:10;45.05;;;29.75;;
22705;SDS011;11520;51.198;4.468;2022-08-19T02:39:55;47.75;;;30.98;;
22705;SDS011;11520;51.198;4.468;2022-08-19T02:42:21;46.20;;;30.52;;
22705;SDS011;11520;51.198;4.468;2022-08-19T02:44:47;48.85;;;31.17;;
22705;SDS011;11520;51.198;4.468;2022-08-19T02:47:12;46.75;;;31.35;;
22705;SDS011;11520;51.198;4.468;2022-08-19T02:49:40;43.55;;;29.83;;
22705;SDS011;11520;51.198;4.468;2022-08-19T02:52:05;48.80;;;31.17;;
22705;SDS011;11520;51.198;4.468;2022-08-19T02:54:31;48.63;;;32.38;;
22705;SDS011;11520;51.198;4.468;2022-08-19T02:56:59;49.63;;;32.70;;
22705;SDS011;11520;51.198;4.468;2022-08-19T02:59:26;48.45;;;32.42;;
22705;SDS011;11520;51.198;4.468;2022-08-19T03:01:56;46.33;;;31.50;;
22705;SDS011;11520;51.198;4.468;2022-08-19T03:04:23;51.03;;;31.73;;
22705;SDS011;11520;51.198;4.468;2022-08-19T03:06:49;48.88;;;31.95;;
22705;SDS011;11520;51.198;4.468;2022-08-19T03:09:15;44.30;;;30.08;;
22705;SDS011;11520;51.198;4.468;2022-08-19T03:11:44;55.08;;;30.98;;
22705;SDS011;11520;51.198;4.468;2022-08-19T03:14:10;47.25;;;30.48;;
22705;SDS011;11520;51.198;4.468;2022-08-19T03:16:43;46.58;;;31.02;;
22705;SDS011;11520;51.198;4.468;2022-08-19T03:21:36;47.85;;;31.08;;
22705;SDS011;11520;51.198;4.468;2022-08-19T03:24:03;47.17;;;31.25;;
22705;SDS011;11520;51.198;4.468;2022-08-19T03:26:30;48.28;;;31.17;;
22705;SDS011;11520;51.198;4.468;2022-08-19T03:29:00;44.33;;;28.27;;
22705;SDS011;11520;51.198;4.468;2022-08-19T03:31:27;46.22;;;30.00;;
22705;SDS011;11520;51.198;4.468;2022-08-19T03:33:54;47.72;;;30.10;;
22705;SDS011;11520;51.198;4.468;2022-08-19T03:36:24;47.40;;;28.50;;
22705;SDS011;11520;51.198;4.468;2022-08-19T03:38:52;45.88;;;27.60;;
22705;SDS011;11520;51.198;4.468;2022-08-19T03:41:22;45.08;;;27.85;;
22705;SDS011;11520;51.198;4.468;2022-08-19T03:43:49;48.95;;;29.55;;
22705;SDS011;11520;51.198;4.468;2022-08-19T03:46:18;43.75;;;27.80;;
22705;SDS011;11520;51.198;4.468;2022-08-19T03:48:45;42.30;;;26.55;;
22705;SDS011;11520;51.198;4.468;2022-08-19T03:51:18;41.75;;;26.23;;
22705;SDS011;11520;51.198;4.468;2022-08-19T03:53:58;38.67;;;25.27;;
22705;SDS011;11520;51.198;4.468;2022-08-19T03:56:25;41.53;;;24.70;;
22705;SDS011;11520;51.198;4.468;2022-08-19T03:58:52;38.28;;;24.27;;
22705;SDS011;11520;51.198;4.468;2022-08-19T04:01:20;39.08;;;26.20;;
22705;SDS011;11520;51.198;4.468;2022-08-19T04:03:47;39.85;;;23.90;;
22705;SDS011;11520;51.198;4.468;2022-08-19T04:08:40;45.70;;;24.67;;
22705;SDS011;11520;51.198;4.468;2022-08-19T04:11:09;42.00;;;24.40;;
22705;SDS011;11520;51.198;4.468;2022-08-19T04:13:37;37.97;;;24.52;;
22705;SDS011;11520;51.198;4.468;2022-08-19T04:16:03;44.70;;;24.63;;
22705;SDS011;11520;51.198;4.468;2022-08-19T04:18:30;36.85;;;22.85;;
22705;SDS011;11520;51.198;4.468;2022-08-19T04:20:57;42.97;;;24.90;;
22705;SDS011;11520;51.198;4.468;2022-08-19T04:23:24;44.67;;;23.25;;
22705;SDS011;11520;51.198;4.468;2022-08-19T04:25:49;34.65;;;22.50;;
22705;SDS011;11520;51.198;4.468;2022-08-19T04:28:15;36.20;;;22.88;;
22705;SDS011;11520;51.198;4.468;2022-08-19T04:30:45;36.75;;;22.77;;
22705;SDS011;11520;51.198;4.468;2022-08-19T04:33:14;39.50;;;22.05;;
22705;SDS011;11520;51.198;4.468;2022-08-19T04:35:42;36.08;;;21.05;;
22705;SDS011;11520;51.198;4.468;2022-08-19T04:38:09;36.22;;;21.73;;
22705;SDS011;11520;51.198;4.468;2022-08-19T04:40:40;39.40;;;20.85;;
22705;SDS011;11520;51.198;4.468;2022-08-19T04:43:25;36.85;;;20.77;;
22705;SDS011;11520;51.198;4.468;2022-08-19T04:45:51;35.25;;;21.20;;
22705;SDS011;11520;51.198;4.468;2022-08-19T04:48:17;34.25;;;19.52;;
22705;SDS011;11520;51.198;4.468;2022-08-19T04:53:30;32.97;;;18.92;;
22705;SDS011;11520;51.198;4.468;2022-08-19T04:56:04;32.00;;;18.20;;
22705;SDS011;11520;51.198;4.468;2022-08-19T04:58:49;33.15;;;18.85;;
22705;SDS011;11520;51.198;4.468;2022-08-19T05:01:33;32.90;;;19.63;;
22705;SDS011;11520;51.198;4.468;2022-08-19T05:04:01;34.92;;;18.88;;
22705;SDS011;11520;51.198;4.468;2022-08-19T05:06:29;27.70;;;17.65;;
22705;SDS011;11520;51.198;4.468;2022-08-19T05:08:57;28.55;;;18.00;;
22705;SDS011;11520;51.198;4.468;2022-08-19T05:11:31;29.65;;;18.35;;
22705;SDS011;11520;51.198;4.468;2022-08-19T05:13:58;27.95;;;17.50;;
22705;SDS011;11520;51.198;4.468;2022-08-19T05:16:24;27.92;;;16.38;;
22705;SDS011;11520;51.198;4.468;2022-08-19T05:18:51;31.95;;;17.58;;
22705;SDS011;11520;51.198;4.468;2022-08-19T05:21:49;30.60;;;16.58;;
22705;SDS011;11520;51.198;4.468;2022-08-19T05:24:34;26.45;;;16.73;;
22705;SDS011;11520;51.198;4.468;2022-08-19T05:27:00;29.63;;;16.95;;
22705;SDS011;11520;51.198;4.468;2022-08-19T05:29:27;26.65;;;14.70;;
22705;SDS011;11520;51.198;4.468;2022-08-19T05:31:56;26.05;;;14.40;;
22705;SDS011;11520;51.198;4.468;2022-08-19T05:34:24;22.40;;;14.85;;
22705;SDS011;11520;51.198;4.468;2022-08-19T05:36:51;22.55;;;14.90;;
22705;SDS011;11520;51.198;4.468;2022-08-19T05:39:21;23.25;;;13.90;;
22705;SDS011;11520;51.198;4.468;2022-08-19T05:41:48;21.77;;;15.00;;
22705;SDS011;11520;51.198;4.468;2022-08-19T05:44:16;24.50;;;13.88;;
22705;SDS011;11520;51.198;4.468;2022-08-19T05:46:42;24.60;;;14.07;;
22705;SDS011;11520;51.198;4.468;2022-08-19T05:49:09;21.92;;;13.88;;
22705;SDS011;11520;51.198;4.468;2022-08-19T05:51:35;19.92;;;12.57;;
22705;SDS011;11520;51.198;4.468;2022-08-19T05:54:04;23.63;;;12.90;;
22705;SDS011;11520;51.198;4.468;2022-08-19T05:56:32;23.30;;;12.38;;
22705;SDS011;11520;51.198;4.468;2022-08-19T05:59:04;20.40;;;13.38;;
22705;SDS011;11520;51.198;4.468;2022-08-19T06:01:33;25.57;;;13.33;;
22705;SDS011;11520;51.198;4.468;2022-08-19T06:04:00;25.10;;;12.77;;
22705;SDS011;11520;51.198;4.468;2022-08-19T06:09:50;26.27;;;12.30;;
22705;SDS011;11520;51.198;4.468;2022-08-19T06:12:22;18.77;;;11.63;;
22705;SDS011;11520;51.198;4.468;2022-08-19T06:17:24;23.30;;;11.88;;
22705;SDS011;11520;51.198;4.468;2022-08-19T06:19:53;19.80;;;10.45;;
22705;SDS011;11520;51.198;4.468;2022-08-19T06:22:19;19.50;;;11.15;;
22705;SDS011;11520;51.198;4.468;2022-08-19T06:24:46;20.95;;;11.18;;
22705;SDS011;11520;51.198;4.468;2022-08-19T06:27:11;20.83;;;11.35;;
22705;SDS011;11520;51.198;4.468;2022-08-19T06:29:37;19.08;;;10.02;;
22705;SDS011;11520;51.198;4.468;2022-08-19T06:32:03;19.10;;;10.52;;
22705;SDS011;11520;51.198;4.468;2022-08-19T06:34:30;18.33;;;11.18;;
22705;SDS011;11520;51.198;4.468;2022-08-19T06:36:57;21.48;;;10.82;;
22705;SDS011;11520;51.198;4.468;2022-08-19T06:39:30;18.23;;;10.70;;
22705;SDS011;11520;51.198;4.468;2022-08-19T06:41:59;19.25;;;11.75;;
22705;SDS011;11520;51.198;4.468;2022-08-19T06:44:30;21.48;;;12.52;;
22705;SDS011;11520;51.198;4.468;2022-08-19T06:47:00;26.77;;;12.82;;
22705;SDS011;11520;51.198;4.468;2022-08-19T06:49:29;21.88;;;13.00;;
22705;SDS011;11520;51.198;4.468;2022-08-19T06:51:56;28.20;;;12.82;;
22705;SDS011;11520;51.198;4.468;2022-08-19T06:54:23;21.85;;;12.95;;
22705;SDS011;11520;51.198;4.468;2022-08-19T06:56:51;25.70;;;14.68;;
22705;SDS011;11520;51.198;4.468;2022-08-19T06:59:17;29.35;;;12.25;;
22705;SDS011;11520;51.198;4.468;2022-08-19T07:01:50;27.58;;;12.68;;
22705;SDS011;11520;51.198;4.468;2022-08-19T07:04:19;30.15;;;12.52;;
22705;SDS011;11520;51.198;4.468;2022-08-19T07:06:47;23.48;;;12.48;;
22705;SDS011;11520;51.198;4.468;2022-08-19T07:09:15;23.23;;;11.98;;
22705;SDS011;11520;51.198;4.468;2022-08-19T07:11:46;18.25;;;11.60;;
22705;SDS011;11520;51.198;4.468;2022-08-19T07:14:18;22.45;;;11.65;;
22705;SDS011;11520;51.198;4.468;2022-08-19T07:16:46;18.25;;;10.63;;
22705;SDS011;11520;51.198;4.468;2022-08-19T07:19:14;18.75;;;10.45;;
22705;SDS011;11520;51.198;4.468;2022-08-19T07:21:39;25.25;;;11.48;;
22705;SDS011;11520;51.198;4.468;2022-08-19T07:24:06;16.80;;;10.18;;
22705;SDS011;11520;51.198;4.468;2022-08-19T07:26:33;19.10;;;11.18;;
22705;SDS011;11520;51.198;4.468;2022-08-19T07:29:04;17.27;;;10.93;;
22705;SDS011;11520;51.198;4.468;2022-08-19T07:31:31;20.02;;;12.43;;
22705;SDS011;11520;51.198;4.468;2022-08-19T07:34:03;19.35;;;11.32;;
22705;SDS011;11520;51.198;4.468;2022-08-19T07:36:37;16.13;;;10.32;;
22705;SDS011;11520;51.198;4.468;2022-08-19T07:39:07;19.35;;;11.93;;
22705;SDS011;11520;51.198;4.468;2022-08-19T07:41:36;18.65;;;11.45;;
22705;SDS011;11520;51.198;4.468;2022-08-19T07:44:03;21.85;;;12.88;;
22705;SDS011;11520;51.198;4.468;2022-08-19T07:46:33;25.48;;;12.82;;
22705;SDS011;11520;51.198;4.468;2022-08-19T07:49:01;22.95;;;12.30;;
22705;SDS011;11520;51.198;4.468;2022-08-19T07:51:27;19.17;;;11.82;;
22705;SDS011;11520;51.198;4.468;2022-08-19T07:53:53;22.50;;;13.98;;
22705;SDS011;11520;51.198;4.468;2022-08-19T07:56:20;20.10;;;12.55;;
22705;SDS011;11520;51.198;4.468;2022-08-19T07:58:46;18.67;;;11.40;;
22705;SDS011;11520;51.198;4.468;2022-08-19T08:01:16;20.50;;;10.23;;
22705;SDS011;11520;51.198;4.468;2022-08-19T08:03:49;17.40;;;9.93;;
22705;SDS011;11520;51.198;4.468;2022-08-19T08:06:36;18.58;;;10.10;;
22705;SDS011;11520;51.198;4.468;2022-08-19T08:09:22;20.52;;;14.23;;
22705;SDS011;11520;51.198;4.468;2022-08-19T08:11:59;19.83;;;13.93;;
22705;SDS011;11520;51.198;4.468;2022-08-19T08:14:43;28.48;;;17.35;;
22705;SDS011;11520;51.198;4.468;2022-08-19T08:17:16;19.83;;;14.13;;
22705;SDS011;11520;51.198;4.468;2022-08-19T08:19:44;21.02;;;15.23;;
22705;SDS011;11520;51.198;4.468;2022-08-19T08:22:11;22.88;;;15.57;;
22705;SDS011;11520;51.198;4.468;2022-08-19T08:25:06;19.23;;;13.40;;
22705;SDS011;11520;51.198;4.468;2022-08-19T08:27:42;19.20;;;11.50;;
22705;SDS011;11520;51.198;4.468;2022-08-19T08:30:10;18.35;;;10.95;;
22705;SDS011;11520;51.198;4.468;2022-08-19T08:32:39;14.65;;;11.38;;
22705;SDS011;11520;51.198;4.468;2022-08-19T08:35:06;17.88;;;13.10;;
22705;SDS011;11520;51.198;4.468;2022-08-19T08:37:34;23.65;;;13.75;;
22705;SDS011;11520;51.198;4.468;2022-08-19T08:40:18;20.45;;;14.88;;
22705;SDS011;11520;51.198;4.468;2022-08-19T08:43:03;18.30;;;14.40;;
22705;SDS011;11520;51.198;4.468;2022-08-19T08:45:42;21.30;;;15.25;;
22705;SDS011;11520;51.198;4.468;2022-08-19T08:48:24;17.52;;;12.27;;
22705;SDS011;11520;51.198;4.468;2022-08-19T08:51:09;16.70;;;9.77;;
22705;SDS011;11520;51.198;4.468;2022-08-19T08:53:42;15.35;;;9.77;;
22705;SDS011;11520;51.198;4.468;2022-08-19T08:56:11;14.02;;;9.93;;
22705;SDS011;11520;51.198;4.468;2022-08-19T09:01:28;13.85;;;8.02;;
22705;SDS011;11520;51.198;4.468;2022-08-19T09:03:54;12.50;;;8.95;;
22705;SDS011;11520;51.198;4.468;2022-08-19T09:06:23;14.23;;;9.15;;
22705;SDS011;11520;51.198;4.468;2022-08-19T09:16:48;12.30;;;7.95;;
22705;SDS011;11520;51.198;4.468;2022-08-19T09:19:16;17.23;;;8.55;;
22705;SDS011;11520;51.198;4.468;2022-08-19T09:21:42;13.20;;;8.38;;
22705;SDS011;11520;51.198;4.468;2022-08-19T09:24:08;34.70;;;16.58;;
22705;SDS011;11520;51.198;4.468;2022-08-19T09:26:34;20.52;;;10.80;;
22705;SDS011;11520;51.198;4.468;2022-08-19T09:29:00;16.63;;;9.75;;
22705;SDS011;11520;51.198;4.468;2022-08-19T09:31:31;31.38;;;14.68;;
22705;SDS011;11520;51.198;4.468;2022-08-19T09:33:57;15.77;;;9.02;;
22705;SDS011;11520;51.198;4.468;2022-08-19T09:36:25;22.33;;;9.93;;
22705;SDS011;11520;51.198;4.468;2022-08-19T09:38:54;16.50;;;7.38;;
22705;SDS011;11520;51.198;4.468;2022-08-19T09:41:21;25.02;;;12.20;;
22705;SDS011;11520;51.198;4.468;2022-08-19T09:43:49;10.48;;;7.35;;
22705;SDS011;11520;51.198;4.468;2022-08-19T09:46:21;15.40;;;8.87;;
22705;SDS011;11520;51.198;4.468;2022-08-19T09:48:49;14.73;;;8.70;;
22705;SDS011;11520;51.198;4.468;2022-08-19T09:51:22;13.23;;;8.13;;
22705;SDS011;11520;51.198;4.468;2022-08-19T09:53:51;12.85;;;8.70;;
22705;SDS011;11520;51.198;4.468;2022-08-19T09:56:19;13.80;;;9.52;;
22705;SDS011;11520;51.198;4.468;2022-08-19T09:58:46;16.88;;;9.38;;
22705;SDS011;11520;51.198;4.468;2022-08-19T10:01:17;18.20;;;9.90;;
22705;SDS011;11520;51.198;4.468;2022-08-19T10:03:47;17.05;;;10.40;;
22705;SDS011;11520;51.198;4.468;2022-08-19T10:06:18;13.45;;;9.07;;
22705;SDS011;11520;51.198;4.468;2022-08-19T10:08:45;17.75;;;10.25;;
22705;SDS011;11520;51.198;4.468;2022-08-19T10:11:15;18.08;;;9.07;;
22705;SDS011;11520;51.198;4.468;2022-08-19T10:13:42;17.73;;;9.75;;
22705;SDS011;11520;51.198;4.468;2022-08-19T10:16:12;17.05;;;9.18;;
22705;SDS011;11520;51.198;4.468;2022-08-19T10:18:40;14.90;;;9.40;;
22705;SDS011;11520;51.198;4.468;2022-08-19T10:21:11;13.43;;;8.80;;
22705;SDS011;11520;51.198;4.468;2022-08-19T10:23:46;15.30;;;9.23;;
22705;SDS011;11520;51.198;4.468;2022-08-19T10:26:17;12.50;;;8.95;;
22705;SDS011;11520;51.198;4.468;2022-08-19T10:28:46;14.53;;;8.93;;
22705;SDS011;11520;51.198;4.468;2022-08-19T10:31:18;14.10;;;8.25;;
22705;SDS011;11520;51.198;4.468;2022-08-19T10:33:48;16.35;;;8.43;;
22705;SDS011;11520;51.198;4.468;2022-08-19T10:36:21;15.30;;;8.13;;
22705;SDS011;11520;51.198;4.468;2022-08-19T10:38:49;13.33;;;7.87;;
22705;SDS011;11520;51.198;4.468;2022-08-19T10:43:55;13.75;;;8.30;;
22705;SDS011;11520;51.198;4.468;2022-08-19T10:51:24;14.48;;;7.45;;
22705;SDS011;11520;51.198;4.468;2022-08-19T10:54:08;10.95;;;7.20;;
22705;SDS011;11520;51.198;4.468;2022-08-19T11:10:17;13.97;;;8.23;;
22705;SDS011;11520;51.198;4.468;2022-08-19T11:12:45;15.27;;;9.73;;
22705;SDS011;11520;51.198;4.468;2022-08-19T11:15:13;15.05;;;9.15;;
22705;SDS011;11520;51.198;4.468;2022-08-19T11:17:40;14.45;;;9.32;;
22705;SDS011;11520;51.198;4.468;2022-08-19T11:20:08;11.10;;;7.68;;
22705;SDS011;11520;51.198;4.468;2022-08-19T11:22:38;10.80;;;8.35;;
22705;SDS011;11520;51.198;4.468;2022-08-19T11:25:05;11.63;;;8.43;;
22705;SDS011;11520;51.198;4.468;2022-08-19T11:27:32;13.15;;;7.63;;
22705;SDS011;11520;51.198;4.468;2022-08-19T11:29:58;12.23;;;7.88;;
22705;SDS011;11520;51.198;4.468;2022-08-19T11:32:25;11.55;;;7.47;;
22705;SDS011;11520;51.198;4.468;2022-08-19T11:34:51;9.93;;;7.20;;
22705;SDS011;11520;51.198;4.468;2022-08-19T11:37:17;9.68;;;7.15;;
22705;SDS011;11520;51.198;4.468;2022-08-19T11:39:42;8.65;;;7.32;;
22705;SDS011;11520;51.198;4.468;2022-08-19T11:42:08;9.88;;;6.93;;
22705;SDS011;11520;51.198;4.468;2022-08-19T11:44:52;15.23;;;6.88;;
22705;SDS011;11520;51.198;4.468;2022-08-19T11:47:18;11.77;;;6.85;;
22705;SDS011;11520;51.198;4.468;2022-08-19T11:49:45;8.48;;;6.07;;
22705;SDS011;11520;51.198;4.468;2022-08-19T11:52:11;8.75;;;5.40;;
22705;SDS011;11520;51.198;4.468;2022-08-19T11:54:37;6.85;;;5.43;;
22705;SDS011;11520;51.198;4.468;2022-08-19T11:57:03;8.95;;;6.00;;
22705;SDS011;11520;51.198;4.468;2022-08-19T11:59:29;7.57;;;5.13;;
22705;SDS011;11520;51.198;4.468;2022-08-19T12:01:55;8.02;;;5.50;;
22705;SDS011;11520;51.198;4.468;2022-08-19T12:04:22;10.60;;;5.30;;
22705;SDS011;11520;51.198;4.468;2022-08-19T12:06:48;6.53;;;5.35;;
22705;SDS011;11520;51.198;4.468;2022-08-19T12:09:15;10.77;;;5.00;;
22705;SDS011;11520;51.198;4.468;2022-08-19T12:11:42;7.80;;;4.97;;
22705;SDS011;11520;51.198;4.468;2022-08-19T12:14:09;6.75;;;4.78;;
22705;SDS011;11520;51.198;4.468;2022-08-19T12:16:36;7.88;;;5.10;;
22705;SDS011;11520;51.198;4.468;2022-08-19T12:19:03;10.15;;;5.20;;
22705;SDS011;11520;51.198;4.468;2022-08-19T12:21:30;5.82;;;4.28;;
22705;SDS011;11520;51.198;4.468;2022-08-19T12:23:59;5.10;;;4.20;;
22705;SDS011;11520;51.198;4.468;2022-08-19T12:26:26;5.53;;;3.45;;
22705;SDS011;11520;51.198;4.468;2022-08-19T12:28:52;4.57;;;3.00;;
22705;SDS011;11520;51.198;4.468;2022-08-19T12:31:18;6.97;;;3.13;;
22705;SDS011;11520;51.198;4.468;2022-08-19T12:33:44;3.20;;;2.80;;
22705;SDS011;11520;51.198;4.468;2022-08-19T12:36:11;7.45;;;2.80;;
22705;SDS011;11520;51.198;4.468;2022-08-19T12:38:38;4.82;;;2.05;;
22705;SDS011;11520;51.198;4.468;2022-08-19T12:41:05;3.33;;;2.28;;
22705;SDS011;11520;51.198;4.468;2022-08-19T12:43:35;7.80;;;2.70;;
22705;SDS011;11520;51.198;4.468;2022-08-19T12:46:02;5.22;;;2.03;;
22705;SDS011;11520;51.198;4.468;2022-08-19T12:48:29;4.82;;;2.20;;
22705;SDS011;11520;51.198;4.468;2022-08-19T12:50:56;3.30;;;2.35;;
22705;SDS011;11520;51.198;4.468;2022-08-19T12:53:21;6.07;;;2.65;;
22705;SDS011;11520;51.198;4.468;2022-08-19T12:55:54;2.95;;;2.63;;
22705;SDS011;11520;51.198;4.468;2022-08-19T12:58:21;4.28;;;2.95;;
22705;SDS011;11520;51.198;4.468;2022-08-19T13:00:47;3.55;;;2.10;;
22705;SDS011;11520;51.198;4.468;2022-08-19T13:03:13;2.95;;;2.17;;
22705;SDS011;11520;51.198;4.468;2022-08-19T13:05:40;5.50;;;2.08;;
22705;SDS011;11520;51.198;4.468;2022-08-19T13:08:05;4.72;;;2.00;;
22705;SDS011;11520;51.198;4.468;2022-08-19T13:10:32;4.72;;;2.10;;
22705;SDS011;11520;51.198;4.468;2022-08-19T13:13:00;3.70;;;2.28;;
22705;SDS011;11520;51.198;4.468;2022-08-19T13:15:32;2.05;;;1.83;;
22705;SDS011;11520;51.198;4.468;2022-08-19T13:17:59;2.20;;;2.00;;
22705;SDS011;11520;51.198;4.468;2022-08-19T13:20:25;5.35;;;1.88;;
22705;SDS011;11520;51.198;4.468;2022-08-19T13:22:51;4.72;;;1.85;;
22705;SDS011;11520;51.198;4.468;2022-08-19T13:25:24;3.20;;;2.22;;
22705;SDS011;11520;51.198;4.468;2022-08-19T13:27:50;3.85;;;1.70;;
22705;SDS011;11520;51.198;4.468;2022-08-19T13:30:16;4.78;;;1.58;;
22705;SDS011;11520;51.198;4.468;2022-08-19T13:33:01;3.20;;;1.52;;
22705;SDS011;11520;51.198;4.468;2022-08-19T13:35:53;4.68;;;2.05;;
22705;SDS011;11520;51.198;4.468;2022-08-19T13:38:22;2.22;;;2.00;;
22705;SDS011;11520;51.198;4.468;2022-08-19T13:40:52;2.47;;;1.52;;
22705;SDS011;11520;51.198;4.468;2022-08-19T13:48:58;4.18;;;1.90;;
22705;SDS011;11520;51.198;4.468;2022-08-19T13:51:23;2.22;;;1.60;;
22705;SDS011;11520;51.198;4.468;2022-08-19T13:53:49;2.40;;;1.95;;
22705;SDS011;11520;51.198;4.468;2022-08-19T13:56:16;3.35;;;1.75;;
22705;SDS011;11520;51.198;4.468;2022-08-19T13:58:44;2.88;;;2.22;;
22705;SDS011;11520;51.198;4.468;2022-08-19T14:01:12;3.65;;;1.70;;
22705;SDS011;11520;51.198;4.468;2022-08-19T14:03:43;5.20;;;2.00;;
22705;SDS011;11520;51.198;4.468;2022-08-19T14:06:09;5.18;;;2.10;;
22705;SDS011;11520;51.198;4.468;2022-08-19T14:08:35;1.75;;;1.65;;
22705;SDS011;11520;51.198;4.468;2022-08-19T14:11:04;3.70;;;2.88;;
22705;SDS011;11520;51.198;4.468;2022-08-19T14:13:31;4.63;;;3.03;;
22705;SDS011;11520;51.198;4.468;2022-08-19T14:15:58;3.25;;;2.95;;
22705;SDS011;11520;51.198;4.468;2022-08-19T14:18:25;5.20;;;3.55;;
22705;SDS011;11520;51.198;4.468;2022-08-19T14:20:52;4.78;;;3.10;;
22705;SDS011;11520;51.198;4.468;2022-08-19T14:23:19;5.30;;;3.40;;
22705;SDS011;11520;51.198;4.468;2022-08-19T14:25:46;4.68;;;3.20;;
22705;SDS011;11520;51.198;4.468;2022-08-19T14:28:11;3.55;;;2.75;;
22705;SDS011;11520;51.198;4.468;2022-08-19T14:30:37;7.60;;;2.28;;
22705;SDS011;11520;51.198;4.468;2022-08-19T14:33:04;5.10;;;2.13;;
22705;SDS011;11520;51.198;4.468;2022-08-19T14:35:32;4.32;;;2.30;;
22705;SDS011;11520;51.198;4.468;2022-08-19T14:38:05;4.32;;;1.92;;
22705;SDS011;11520;51.198;4.468;2022-08-19T14:40:39;4.95;;;1.73;;
22705;SDS011;11520;51.198;4.468;2022-08-19T14:43:07;5.57;;;2.30;;
22705;SDS011;11520;51.198;4.468;2022-08-19T14:45:35;8.73;;;2.20;;
22705;SDS011;11520;51.198;4.468;2022-08-19T14:48:04;3.15;;;1.30;;
22705;SDS011;11520;51.198;4.468;2022-08-19T14:50:32;2.78;;;1.20;;
22705;SDS011;11520;51.198;4.468;2022-08-19T14:53:00;2.10;;;1.08;;
22705;SDS011;11520;51.198;4.468;2022-08-19T14:55:29;1.50;;;1.30;;
22705;SDS011;11520;51.198;4.468;2022-08-19T14:57:55;5.57;;;1.23;;
22705;SDS011;11520;51.198;4.468;2022-08-19T15:00:21;1.90;;;1.05;;
22705;SDS011;11520;51.198;4.468;2022-08-19T15:02:49;3.70;;;0.90;;
22705;SDS011;11520;51.198;4.468;2022-08-19T15:05:21;3.30;;;1.33;;
22705;SDS011;11520;51.198;4.468;2022-08-19T15:07:47;3.47;;;1.23;;
22705;SDS011;11520;51.198;4.468;2022-08-19T15:10:13;2.35;;;1.20;;
22705;SDS011;11520;51.198;4.468;2022-08-19T15:12:40;3.53;;;1.42;;
22705;SDS011;11520;51.198;4.468;2022-08-19T15:15:11;3.25;;;1.88;;
22705;SDS011;11520;51.198;4.468;2022-08-19T15:17:40;7.95;;;2.50;;
22705;SDS011;11520;51.198;4.468;2022-08-19T15:20:09;3.40;;;2.30;;
22705;SDS011;11520;51.198;4.468;2022-08-19T15:22:37;3.35;;;1.95;;
22705;SDS011;11520;51.198;4.468;2022-08-19T15:25:05;2.67;;;1.65;;
22705;SDS011;11520;51.198;4.468;2022-08-19T15:27:34;2.88;;;1.08;;
22705;SDS011;11520;51.198;4.468;2022-08-19T15:30:02;2.67;;;1.10;;
22705;SDS011;11520;51.198;4.468;2022-08-19T15:32:28;2.42;;;1.40;;